| time (UTC) | temp C | wind direction | speed KPH | gust KPH | rain 1hr cm | rain 24hr cm | rain mn cm | humidity % | barometer mb |
| 20260902231503 | 31 | 160 | 4.8 | 6.4 | 0.00 | 0.00 | 0.00 | 61 | 1015.2 |
| 20260902230958 | 31 | 169 | 4.8 | 6.4 | 0.00 | 0.00 | 0.00 | 59 | 1014.9 |
| 20260902230451 | 32 | 173 | 4.8 | 6.4 | 0.00 | 0.00 | 0.00 | 59 | 1015.0 |
| 20260902225945 | 32 | 184 | 6.4 | 8.0 | 0.00 | 0.00 | 0.00 | 58 | 1014.9 |
| 20260902225440 | 32 | 173 | 4.8 | 6.4 | 0.00 | 0.00 | 0.00 | 57 | 1014.9 |
| 20260902224940 | 32 | 177 | 4.8 | 8.0 | 0.00 | 0.00 | 0.00 | 57 | 1015.1 |
| 20260902224439 | 32 | 181 | 4.8 | 6.4 | 0.00 | 0.00 | 0.00 | 56 | 1015.1 |
| 20260902223936 | 32 | 178 | 6.4 | 8.0 | 0.00 | 0.00 | 0.00 | 57 | 1015.2 |
| 20260902223431 | 32 | 181 | 6.4 | 6.4 | 0.00 | 0.00 | 0.00 | 56 | 1015.1 |
| 20260902222930 | 32 | 178 | 6.4 | 6.4 | 0.00 | 0.00 | 0.00 | 56 | 1014.9 |
| 20260902222428 | 33 | 183 | 4.8 | 6.4 | 0.00 | 0.00 | 0.00 | 56 | 1015.1 |
| 20260902221923 | 33 | 177 | 4.8 | 8.0 | 0.00 | 0.00 | 0.00 | 54 | 1015.2 |
| 20260902221422 | 33 | 180 | 6.4 | 8.0 | 0.00 | 0.00 | 0.00 | 52 | 1015.2 |
| 20260902220918 | 33 | 174 | 6.4 | 6.4 | 0.00 | 0.00 | 0.00 | 51 | 1015.3 |
| 20260902220417 | 33 | 182 | 8.0 | 9.7 | 0.00 | 0.00 | 0.00 | 51 | 1015.2 |
| 20260902215913 | 33 | 179 | 9.7 | 9.7 | 0.00 | 0.00 | 0.00 | 52 | 1015.2 |
| 20260902215408 | 33 | 183 | 8.0 | 11.3 | 0.00 | 0.00 | 0.00 | 52 | 1015.1 |
| 20260902214904 | 33 | 181 | 6.4 | 11.3 | 0.00 | 0.00 | 0.00 | 51 | 1015.0 |
| 20260902214403 | 33 | 191 | 8.0 | 11.3 | 0.00 | 0.00 | 0.00 | 51 | 1015.2 |
| 20260902213857 | 33 | 184 | 9.7 | 11.3 | 0.00 | 0.00 | 0.00 | 51 | 1015.2 |
| 20260902213354 | 34 | 182 | 6.4 | 9.7 | 0.00 | 0.00 | 0.00 | 50 | 1015.4 |
| 20260902212852 | 34 | 183 | 6.4 | 9.7 | 0.00 | 0.00 | 0.00 | 50 | 1015.3 |
| 20260902212349 | 35 | 187 | 8.0 | 9.7 | 0.00 | 0.00 | 0.00 | 50 | 1015.2 |
| 20260902211845 | 35 | 177 | 6.4 | 8.0 | 0.00 | 0.00 | 0.00 | 50 | 1015.4 |
| 20260902211340 | 35 | 195 | 8.0 | 8.0 | 0.00 | 0.00 | 0.00 | 51 | 1015.2 |
| 20260902210835 | 34 | 185 | 8.0 | 11.3 | 0.00 | 0.00 | 0.00 | 49 | 1015.3 |
| 20260902210335 | 34 | 179 | 8.0 | 9.7 | 0.00 | 0.00 | 0.00 | 50 | 1015.3 |
| 20260902205833 | 35 | 182 | 8.0 | 9.7 | 0.00 | 0.00 | 0.00 | 47 | 1015.4 |
| 20260902205328 | 35 | 195 | 4.8 | 8.0 | 0.00 | 0.00 | 0.00 | 48 | 1015.5 |
| 20260902204824 | 35 | 183 | 9.7 | 9.7 | 0.00 | 0.00 | 0.00 | 51 | 1015.4 |
| 20260902204318 | 35 | 177 | 8.0 | 11.3 | 0.00 | 0.00 | 0.00 | 49 | 1015.5 |
| 20260902203814 | 35 | 187 | 8.0 | 9.7 | 0.00 | 0.00 | 0.00 | 49 | 1015.4 |
| 20260902203308 | 35 | 180 | 6.4 | 9.7 | 0.00 | 0.00 | 0.00 | 48 | 1015.5 |
| 20260902202803 | 35 | 184 | 8.0 | 9.7 | 0.00 | 0.00 | 0.00 | 49 | 1015.3 |
| 20260902202259 | 35 | 188 | 6.4 | 9.7 | 0.00 | 0.00 | 0.00 | 50 | 1015.3 |
| 20260902201756 | 33 | 177 | 6.4 | 8.0 | 0.00 | 0.00 | 0.00 | 53 | 1015.6 |
| 20260902201255 | 34 | 180 | 6.4 | 8.0 | 0.00 | 0.00 | 0.00 | 51 | 1015.7 |
| 20260902200750 | 35 | 185 | 8.0 | 9.7 | 0.00 | 0.00 | 0.00 | 49 | 1015.3 |
| 20260902200246 | 35 | 179 | 4.8 | 6.4 | 0.00 | 0.00 | 0.00 | 49 | 1015.6 |
| 20260902195741 | 35 | 184 | 6.4 | 11.3 | 0.00 | 0.00 | 0.00 | 49 | 1015.7 |
| 20260902195240 | 35 | 185 | 8.0 | 11.3 | 0.00 | 0.00 | 0.00 | 47 | 1015.8 |
| 20260902194740 | 35 | 184 | 6.4 | 12.9 | 0.00 | 0.00 | 0.00 | 47 | 1015.6 |
| 20260902194235 | 35 | 180 | 4.8 | 8.0 | 0.00 | 0.00 | 0.00 | 52 | 1015.7 |
| 20260902193731 | 34 | 176 | 6.4 | 11.3 | 0.00 | 0.00 | 0.00 | 49 | 1015.8 |
| 20260902193226 | 35 | 173 | 4.8 | 9.7 | 0.00 | 0.00 | 0.00 | 50 | 1016.0 |
| 20260902192725 | 35 | 194 | 4.8 | 6.4 | 0.00 | 0.00 | 0.00 | 51 | 1015.9 |
| 20260902192224 | 34 | 186 | 6.4 | 8.0 | 0.00 | 0.00 | 0.00 | 50 | 1016.2 |
| 20260902191719 | 35 | 196 | 8.0 | 9.7 | 0.00 | 0.00 | 0.00 | 48 | 1016.1 |
| 20260902191213 | 35 | 132 | 1.6 | 8.0 | 0.00 | 0.00 | 0.00 | 46 | 1016.3 |
| 20260902190708 | 35 | 194 | 9.7 | 11.3 | 0.00 | 0.00 | 0.00 | 47 | 1016.1 |
| 20260902190203 | 36 | 201 | 9.7 | 11.3 | 0.00 | 0.00 | 0.00 | 48 | 1016.4 |
| 20260902185659 | 36 | 185 | 8.0 | 9.7 | 0.00 | 0.00 | 0.00 | 46 | 1016.6 |
| 20260902185155 | 35 | 182 | 4.8 | 8.0 | 0.00 | 0.00 | 0.00 | 49 | 1016.4 |
| 20260902184650 | 35 | 175 | 4.8 | 8.0 | 0.00 | 0.00 | 0.00 | 51 | 1016.6 |
| 20260902184145 | 35 | 170 | 4.8 | 6.4 | 0.00 | 0.00 | 0.00 | 49 | 1016.4 |
| 20260902183641 | 35 | 205 | 1.6 | 8.0 | 0.00 | 0.00 | 0.00 | 49 | 1016.4 |
| 20260902183137 | 35 | 192 | 4.8 | 6.4 | 0.00 | 0.00 | 0.00 | 52 | 1016.3 |
| 20260902182627 | 35 | 198 | 8.0 | 9.7 | 0.00 | 0.00 | 0.00 | 50 | 1016.4 |
| 20260902182124 | 36 | 180 | 4.8 | 11.3 | 0.00 | 0.00 | 0.00 | 47 | 1016.6 |
| 20260902181620 | 36 | 170 | 8.0 | 11.3 | 0.00 | 0.00 | 0.00 | 48 | 1016.6 |
| 20260902181118 | 35 | 203 | 8.0 | 9.7 | 0.00 | 0.00 | 0.00 | 50 | 1016.5 |
| 20260902180613 | 35 | 188 | 8.0 | 11.3 | 0.00 | 0.00 | 0.00 | 50 | 1016.7 |
| 20260902180109 | 35 | 190 | 6.4 | 11.3 | 0.00 | 0.00 | 0.00 | 49 | 1016.7 |
| 20260902175609 | 35 | 179 | 4.8 | 8.0 | 0.00 | 0.00 | 0.00 | 54 | 1016.9 |
| 20260902175104 | 34 | 174 | 4.8 | 6.4 | 0.00 | 0.00 | 0.00 | 54 | 1016.7 |
| 20260902174600 | 35 | 154 | 4.8 | 8.0 | 0.00 | 0.00 | 0.00 | 51 | 1016.8 |
| 20260902174055 | 33 | 188 | 9.7 | 9.7 | 0.00 | 0.00 | 0.00 | 54 | 1016.8 |
| 20260902173550 | 33 | 197 | 6.4 | 9.7 | 0.00 | 0.00 | 0.00 | 54 | 1017.0 |
| 20260902173045 | 35 | 200 | 8.0 | 11.3 | 0.00 | 0.00 | 0.00 | 52 | 1016.9 |
| 20260902172539 | 34 | 200 | 8.0 | 9.7 | 0.00 | 0.00 | 0.00 | 55 | 1016.8 |
| 20260902172034 | 35 | 197 | 6.4 | 9.7 | 0.00 | 0.00 | 0.00 | 55 | 1017.1 |
| 20260902171530 | 34 | 202 | 6.4 | 9.7 | 0.00 | 0.00 | 0.00 | 55 | 1017.2 |
| 20260902171026 | 34 | 159 | 8.0 | 11.3 | 0.00 | 0.00 | 0.00 | 54 | 1017.3 |
| 20260902170520 | 34 | 190 | 8.0 | 11.3 | 0.00 | 0.00 | 0.00 | 54 | 1017.0 |
| 20260902170016 | 35 | 194 | 6.4 | 11.3 | 0.00 | 0.00 | 0.00 | 56 | 1017.1 |
| 20260902165515 | 34 | 184 | 6.4 | 8.0 | 0.00 | 0.00 | 0.00 | 58 | 1017.1 |
| 20260902165010 | 33 | 160 | 9.7 | 11.3 | 0.00 | 0.00 | 0.00 | 57 | 1017.2 |
| 20260902164505 | 33 | 193 | 8.0 | 9.7 | 0.00 | 0.00 | 0.00 | 62 | 1017.2 |
| 20260902164004 | 33 | 188 | 11.3 | 11.3 | 0.00 | 0.00 | 0.00 | 61 | 1017.0 |
| 20260902163500 | 32 | 186 | 6.4 | 8.0 | 0.00 | 0.00 | 0.00 | 62 | 1017.3 |
| 20260902162957 | 32 | 186 | 8.0 | 9.7 | 0.00 | 0.00 | 0.00 | 62 | 1017.2 |
| 20260902162452 | 32 | 178 | 8.0 | 9.7 | 0.00 | 0.00 | 0.00 | 63 | 1017.4 |
| 20260902161947 | 32 | 169 | 6.4 | 9.7 | 0.00 | 0.00 | 0.00 | 63 | 1017.2 |
| 20260902161442 | 32 | 161 | 8.0 | 11.3 | 0.00 | 0.00 | 0.00 | 62 | 1017.7 |
| 20260902160938 | 32 | 181 | 6.4 | 6.4 | 0.00 | 0.00 | 0.00 | 66 | 1017.6 |
| 20260902160434 | 32 | 180 | 6.4 | 6.4 | 0.00 | 0.00 | 0.00 | 65 | 1017.6 |
| 20260902155931 | 32 | 183 | 8.0 | 8.0 | 0.00 | 0.00 | 0.00 | 66 | 1017.5 |
| 20260902155427 | 31 | 188 | 4.8 | 8.0 | 0.00 | 0.00 | 0.00 | 68 | 1017.4 |
| 20260902154920 | 31 | 195 | 9.7 | 9.7 | 0.00 | 0.00 | 0.00 | 69 | 1017.7 |
| 20260902154416 | 31 | 161 | 6.4 | 8.0 | 0.00 | 0.00 | 0.00 | 68 | 1017.7 |
| 20260902153915 | 31 | 161 | 8.0 | 9.7 | 0.00 | 0.00 | 0.00 | 67 | 1017.9 |
| 20260902153414 | 30 | 180 | 6.4 | 8.0 | 0.00 | 0.00 | 0.00 | 69 | 1017.7 |
| 20260902152910 | 30 | 177 | 6.4 | 8.0 | 0.00 | 0.00 | 0.00 | 70 | 1017.7 |
| 20260902152406 | 30 | 177 | 4.8 | 8.0 | 0.00 | 0.00 | 0.00 | 71 | 1017.9 |
| 20260902151901 | 30 | 179 | 6.4 | 9.7 | 0.00 | 0.00 | 0.00 | 70 | 1017.7 |
| 20260902151356 | 30 | 132 | 8.0 | 8.0 | 0.00 | 0.00 | 0.00 | 70 | 1018.0 |
| 20260902150851 | 30 | 148 | 8.0 | 8.0 | 0.00 | 0.00 | 0.00 | 71 | 1017.9 |
| 20260902150348 | 30 | 159 | 6.4 | 6.4 | 0.00 | 0.00 | 0.00 | 73 | 1017.9 |
| 20260902145847 | 29 | 164 | 4.8 | 6.4 | 0.00 | 0.00 | 0.00 | 72 | 1017.7 |
| 20260902145342 | 29 | 162 | 6.4 | 8.0 | 0.00 | 0.00 | 0.00 | 74 | 1017.9 |
| 20260902144837 | 28 | 156 | 9.7 | 9.7 | 0.00 | 0.00 | 0.00 | 75 | 1017.6 |
| 20260902144333 | 28 | 167 | 6.4 | 8.0 | 0.00 | 0.00 | 0.00 | 73 | 1017.7 |
| 20260902143827 | 28 | 179 | 6.4 | 8.0 | 0.00 | 0.00 | 0.00 | 74 | 1017.9 |
| 20260902143322 | 28 | 178 | 4.8 | 8.0 | 0.00 | 0.00 | 0.00 | 76 | 1017.9 |
| 20260902142818 | 28 | 212 | 1.6 | 4.8 | 0.00 | 0.00 | 0.00 | 75 | 1017.9 |
| 20260902142314 | 28 | 152 | 4.8 | 4.8 | 0.00 | 0.00 | 0.00 | 75 | 1017.9 |
| 20260902141809 | 28 | 167 | 6.4 | 8.0 | 0.00 | 0.00 | 0.00 | 76 | 1017.9 |
| 20260902141304 | 28 | 160 | 6.4 | 8.0 | 0.00 | 0.00 | 0.00 | 75 | 1018.0 |
| 20260902140758 | 28 | 176 | 4.8 | 4.8 | 0.00 | 0.00 | 0.00 | 76 | 1017.7 |
| 20260902140254 | 27 | 177 | 4.8 | 6.4 | 0.00 | 0.00 | 0.00 | 78 | 1017.9 |
| 20260902135752 | 27 | 167 | 4.8 | 8.0 | 0.00 | 0.00 | 0.00 | 78 | 1018.0 |
| 20260902135249 | 27 | 169 | 6.4 | 6.4 | 0.00 | 0.00 | 0.00 | 78 | 1017.7 |
| 20260902134748 | 27 | 170 | 6.4 | 6.4 | 0.00 | 0.00 | 0.00 | 79 | 1018.1 |
| 20260902134244 | 26 | 163 | 6.4 | 6.4 | 0.00 | 0.00 | 0.00 | 79 | 1017.6 |
| 20260902133739 | 26 | 163 | 6.4 | 6.4 | 0.00 | 0.00 | 0.00 | 79 | 1017.7 |
| 20260902133238 | 26 | 163 | 6.4 | 6.4 | 0.00 | 0.00 | 0.00 | 79 | 1017.9 |
| 20260902132733 | 26 | 174 | 6.4 | 6.4 | 0.00 | 0.00 | 0.00 | 79 | 1017.7 |
| 20260902132229 | 26 | 171 | 6.4 | 8.0 | 0.00 | 0.00 | 0.00 | 80 | 1017.9 |
| 20260902131724 | 26 | 166 | 6.4 | 8.0 | 0.00 | 0.00 | 0.00 | 82 | 1018.2 |
| 20260902131220 | 25 | 175 | 6.4 | 6.4 | 0.00 | 0.00 | 0.00 | 82 | 1017.4 |
| 20260902130721 | 25 | 175 | 6.4 | 8.0 | 0.00 | 0.00 | 0.00 | 82 | 1017.7 |
| 20260902130216 | 25 | 172 | 6.4 | 8.0 | 0.00 | 0.00 | 0.00 | 82 | 1018.0 |
| 20260902125711 | 25 | 172 | 4.8 | 8.0 | 0.00 | 0.00 | 0.00 | 83 | 1017.9 |
| 20260902125208 | 25 | 154 | 6.4 | 8.0 | 0.00 | 0.00 | 0.00 | 85 | 1017.7 |
| 20260902124704 | 24 | 159 | 6.4 | 8.0 | 0.00 | 0.00 | 0.00 | 86 | 1017.9 |
| 20260902124204 | 23 | 166 | 6.4 | 8.0 | 0.00 | 0.00 | 0.00 | 88 | 1017.6 |
| 20260902123659 | 23 | 171 | 6.4 | 8.0 | 0.00 | 0.00 | 0.00 | 89 | 1017.6 |
| 20260902123155 | 23 | 162 | 6.4 | 8.0 | 0.00 | 0.00 | 0.00 | 90 | 1017.5 |
| 20260902122648 | 23 | 173 | 6.4 | 8.0 | 0.00 | 0.00 | 0.00 | 89 | 1017.5 |
| 20260902122144 | 23 | 167 | 6.4 | 8.0 | 0.00 | 0.00 | 0.00 | 89 | 1017.4 |
| 20260902121638 | 23 | 159 | 8.0 | 8.0 | 0.00 | 0.00 | 0.00 | 90 | 1017.3 |
| 20260902121133 | 22 | 160 | 6.4 | 8.0 | 0.00 | 0.00 | 0.00 | 90 | 1017.3 |
| 20260902120624 | 22 | 163 | 6.4 | 8.0 | 0.00 | 0.00 | 0.00 | 90 | 1017.2 |
| 20260902120120 | 22 | 160 | 6.4 | 8.0 | 0.00 | 0.00 | 0.00 | 90 | 1017.2 |
| 20260902115615 | 22 | 164 | 6.4 | 8.0 | 0.00 | 0.00 | 0.00 | 91 | 1017.3 |
| 20260902115111 | 22 | 162 | 6.4 | 8.0 | 0.00 | 0.00 | 0.00 | 91 | 1017.0 |
| 20260902114607 | 22 | 147 | 8.0 | 8.0 | 0.00 | 0.00 | 0.00 | 91 | 1017.2 |
| 20260902114106 | 22 | 148 | 8.0 | 8.0 | 0.00 | 0.00 | 0.00 | 92 | 1017.1 |
| 20260902113602 | 22 | 147 | 6.4 | 8.0 | 0.00 | 0.00 | 0.00 | 92 | 1017.1 |
| 20260902113057 | 22 | 143 | 4.8 | 8.0 | 0.00 | 0.00 | 0.00 | 92 | 1017.1 |
| 20260902112552 | 22 | 141 | 4.8 | 8.0 | 0.00 | 0.00 | 0.00 | 92 | 1016.9 |
| 20260902112049 | 22 | 151 | 4.8 | 6.4 | 0.00 | 0.00 | 0.00 | 92 | 1016.9 |
| 20260902111545 | 22 | 139 | 6.4 | 8.0 | 0.00 | 0.00 | 0.00 | 91 | 1016.8 |
| 20260902111040 | 22 | 151 | 6.4 | 8.0 | 0.00 | 0.00 | 0.00 | 91 | 1017.1 |
| 20260902110536 | 22 | 146 | 6.4 | 6.4 | 0.00 | 0.00 | 0.00 | 91 | 1017.0 |
| 20260902110032 | 22 | 140 | 6.4 | 6.4 | 0.00 | 0.00 | 0.00 | 91 | 1016.9 |
| 20260902105531 | 22 | 138 | 6.4 | 8.0 | 0.00 | 0.00 | 0.00 | 91 | 1016.8 |
| 20260902105026 | 22 | 133 | 6.4 | 8.0 | 0.00 | 0.00 | 0.00 | 91 | 1016.7 |
| 20260902104522 | 22 | 129 | 4.8 | 8.0 | 0.00 | 0.00 | 0.00 | 91 | 1016.8 |
| 20260902104022 | 22 | 137 | 6.4 | 8.0 | 0.00 | 0.00 | 0.00 | 91 | 1017.0 |
| 20260902103517 | 22 | 144 | 4.8 | 8.0 | 0.00 | 0.00 | 0.00 | 91 | 1016.8 |
| 20260902103012 | 22 | 144 | 4.8 | 8.0 | 0.00 | 0.00 | 0.00 | 91 | 1016.5 |
| 20260902102509 | 22 | 137 | 6.4 | 8.0 | 0.00 | 0.00 | 0.00 | 91 | 1016.8 |
| 20260902102005 | 22 | 143 | 6.4 | 6.4 | 0.00 | 0.00 | 0.00 | 92 | 1016.9 |
| 20260902101500 | 22 | 147 | 6.4 | 6.4 | 0.00 | 0.00 | 0.00 | 92 | 1016.7 |
| 20260902100959 | 22 | 142 | 8.0 | 8.0 | 0.00 | 0.00 | 0.00 | 92 | 1016.7 |
| 20260902100453 | 22 | 145 | 6.4 | 8.0 | 0.00 | 0.00 | 0.00 | 92 | 1016.6 |
| 20260902095948 | 22 | 145 | 6.4 | 6.4 | 0.00 | 0.00 | 0.00 | 92 | 1016.5 |
| 20260902095443 | 22 | 147 | 6.4 | 8.0 | 0.00 | 0.00 | 0.00 | 93 | 1016.6 |
| 20260902094942 | 22 | 127 | 6.4 | 8.0 | 0.00 | 0.00 | 0.00 | 93 | 1016.8 |
| 20260902094438 | 22 | 134 | 4.8 | 6.4 | 0.00 | 0.00 | 0.00 | 93 | 1016.6 |
| 20260902093932 | 22 | 137 | 6.4 | 6.4 | 0.00 | 0.00 | 0.00 | 93 | 1016.6 |
| 20260902093427 | 22 | 125 | 6.4 | 8.0 | 0.00 | 0.00 | 0.00 | 92 | 1016.4 |
| 20260902092926 | 22 | 139 | 6.4 | 8.0 | 0.00 | 0.00 | 0.00 | 92 | 1016.5 |
| 20260902092417 | 22 | 145 | 6.4 | 8.0 | 0.00 | 0.00 | 0.00 | 91 | 1016.7 |
| 20260902091916 | 22 | 157 | 6.4 | 8.0 | 0.00 | 0.00 | 0.00 | 91 | 1016.6 |
| 20260902091412 | 22 | 149 | 6.4 | 8.0 | 0.00 | 0.00 | 0.00 | 91 | 1016.7 |
| 20260902090908 | 22 | 152 | 6.4 | 8.0 | 0.00 | 0.00 | 0.00 | 91 | 1016.5 |
| 20260902090408 | 22 | 147 | 8.0 | 8.0 | 0.00 | 0.00 | 0.00 | 91 | 1016.5 |
| 20260902085907 | 22 | 149 | 6.4 | 8.0 | 0.00 | 0.00 | 0.00 | 91 | 1016.3 |
| 20260902085402 | 22 | 150 | 6.4 | 8.0 | 0.00 | 0.00 | 0.00 | 92 | 1016.6 |
| 20260902084858 | 22 | 143 | 6.4 | 8.0 | 0.00 | 0.00 | 0.00 | 92 | 1016.2 |
| 20260902084354 | 22 | 145 | 6.4 | 8.0 | 0.00 | 0.00 | 0.00 | 92 | 1016.1 |
| 20260902083849 | 22 | 147 | 8.0 | 8.0 | 0.00 | 0.00 | 0.00 | 92 | 1016.2 |
| 20260902083349 | 22 | 143 | 4.8 | 6.4 | 0.00 | 0.00 | 0.00 | 92 | 1016.1 |
| 20260902082844 | 22 | 141 | 6.4 | 8.0 | 0.00 | 0.00 | 0.00 | 92 | 1016.1 |
| 20260902082340 | 23 | 144 | 6.4 | 6.4 | 0.00 | 0.00 | 0.00 | 91 | 1016.1 |
| 20260902081837 | 23 | 147 | 6.4 | 6.4 | 0.00 | 0.00 | 0.00 | 91 | 1015.9 |
| 20260902081332 | 23 | 155 | 8.0 | 9.7 | 0.00 | 0.00 | 0.00 | 91 | 1015.9 |
| 20260902080826 | 23 | 148 | 8.0 | 8.0 | 0.00 | 0.00 | 0.00 | 91 | 1016.0 |
| 20260902080323 | 23 | 150 | 6.4 | 8.0 | 0.00 | 0.00 | 0.00 | 92 | 1015.7 |
| 20260902075823 | 23 | 156 | 6.4 | 8.0 | 0.00 | 0.00 | 0.00 | 92 | 1016.0 |
| 20260902075319 | 23 | 148 | 8.0 | 8.0 | 0.00 | 0.00 | 0.00 | 92 | 1015.9 |
| 20260902074814 | 23 | 152 | 6.4 | 8.0 | 0.00 | 0.00 | 0.00 | 93 | 1016.0 |
| 20260902074309 | 23 | 151 | 6.4 | 8.0 | 0.00 | 0.00 | 0.00 | 93 | 1015.8 |
| 20260902073804 | 22 | 143 | 8.0 | 8.0 | 0.00 | 0.00 | 0.00 | 93 | 1015.7 |
| 20260902073301 | 22 | 149 | 6.4 | 6.4 | 0.00 | 0.00 | 0.00 | 93 | 1015.9 |
| 20260902072756 | 23 | 133 | 6.4 | 8.0 | 0.00 | 0.00 | 0.00 | 92 | 1016.0 |
| 20260902072251 | 23 | 149 | 4.8 | 6.4 | 0.00 | 0.00 | 0.00 | 92 | 1015.9 |
| 20260902071748 | 23 | 156 | 6.4 | 8.0 | 0.00 | 0.00 | 0.00 | 92 | 1016.1 |
| 20260902071243 | 23 | 156 | 6.4 | 8.0 | 0.00 | 0.00 | 0.00 | 92 | 1015.9 |
| 20260902070739 | 23 | 158 | 6.4 | 8.0 | 0.00 | 0.00 | 0.00 | 92 | 1015.7 |
| 20260902070239 | 23 | 168 | 4.8 | 6.4 | 0.00 | 0.00 | 0.00 | 91 | 1016.0 |
| 20260902065738 | 23 | 159 | 6.4 | 8.0 | 0.00 | 0.00 | 0.00 | 91 | 1016.1 |
| 20260902065233 | 23 | 155 | 6.4 | 8.0 | 0.00 | 0.00 | 0.00 | 91 | 1016.0 |
| 20260902064728 | 23 | 158 | 6.4 | 8.0 | 0.00 | 0.00 | 0.00 | 91 | 1015.7 |
| 20260902064224 | 23 | 168 | 6.4 | 8.0 | 0.00 | 0.00 | 0.00 | 91 | 1015.8 |
| 20260902063720 | 23 | 145 | 8.0 | 8.0 | 0.00 | 0.00 | 0.00 | 91 | 1015.8 |
| 20260902063220 | 23 | 149 | 8.0 | 8.0 | 0.00 | 0.00 | 0.00 | 90 | 1015.9 |
| 20260902062714 | 23 | 152 | 6.4 | 8.0 | 0.00 | 0.00 | 0.00 | 90 | 1016.0 |
| 20260902062209 | 23 | 157 | 6.4 | 6.4 | 0.00 | 0.00 | 0.00 | 90 | 1016.2 |
| 20260902061708 | 23 | 150 | 6.4 | 8.0 | 0.00 | 0.00 | 0.00 | 89 | 1016.0 |
| 20260902061203 | 23 | 146 | 8.0 | 8.0 | 0.00 | 0.00 | 0.00 | 89 | 1016.1 |
| 20260902060700 | 23 | 153 | 8.0 | 8.0 | 0.00 | 0.00 | 0.00 | 89 | 1016.1 |
| 20260902060155 | 23 | 160 | 6.4 | 8.0 | 0.00 | 0.00 | 0.00 | 89 | 1016.0 |
| 20260902055651 | 24 | 148 | 6.4 | 6.4 | 0.00 | 0.00 | 0.00 | 89 | 1016.2 |
| 20260902055147 | 24 | 151 | 6.4 | 6.4 | 0.00 | 0.00 | 0.00 | 89 | 1016.2 |
| 20260902054642 | 24 | 159 | 6.4 | 8.0 | 0.00 | 0.00 | 0.00 | 88 | 1015.9 |
| 20260902054138 | 24 | 153 | 6.4 | 8.0 | 0.00 | 0.00 | 0.00 | 88 | 1016.3 |
| 20260902053633 | 24 | 152 | 6.4 | 8.0 | 0.00 | 0.00 | 0.00 | 88 | 1015.9 |
| 20260902053133 | 24 | 153 | 6.4 | 8.0 | 0.00 | 0.00 | 0.00 | 87 | 1016.2 |
| 20260902052627 | 24 | 153 | 6.4 | 6.4 | 0.00 | 0.00 | 0.00 | 87 | 1016.1 |
| 20260902052123 | 24 | 151 | 6.4 | 8.0 | 0.00 | 0.00 | 0.00 | 87 | 1016.3 |
| 20260902051622 | 24 | 157 | 6.4 | 8.0 | 0.00 | 0.00 | 0.00 | 87 | 1016.1 |
| 20260902051121 | 25 | 151 | 6.4 | 6.4 | 0.00 | 0.00 | 0.00 | 86 | 1015.9 |
| 20260902050616 | 25 | 158 | 6.4 | 8.0 | 0.00 | 0.00 | 0.00 | 86 | 1016.0 |
| 20260902050111 | 25 | 158 | 6.4 | 8.0 | 0.00 | 0.00 | 0.00 | 86 | 1016.2 |
| 20260902045606 | 25 | 153 | 6.4 | 8.0 | 0.00 | 0.00 | 0.00 | 86 | 1016.1 |
| 20260902045102 | 25 | 160 | 6.4 | 6.4 | 0.00 | 0.00 | 0.00 | 86 | 1016.1 |
| 20260902044557 | 25 | 159 | 6.4 | 8.0 | 0.00 | 0.00 | 0.00 | 86 | 1016.2 |
| 20260902044052 | 25 | 152 | 8.0 | 8.0 | 0.00 | 0.00 | 0.00 | 87 | 1016.1 |
| 20260902043548 | 25 | 149 | 6.4 | 6.4 | 0.00 | 0.00 | 0.00 | 87 | 1016.0 |
| 20260902043043 | 25 | 147 | 6.4 | 8.0 | 0.00 | 0.00 | 0.00 | 87 | 1016.0 |
| 20260902042542 | 25 | 153 | 6.4 | 8.0 | 0.00 | 0.00 | 0.00 | 87 | 1016.2 |
| 20260902042037 | 25 | 137 | 6.4 | 8.0 | 0.00 | 0.00 | 0.00 | 86 | 1016.2 |
| 20260902041532 | 25 | 149 | 6.4 | 6.4 | 0.00 | 0.00 | 0.00 | 85 | 1016.2 |
| 20260902041027 | 25 | 153 | 6.4 | 8.0 | 0.00 | 0.00 | 0.00 | 85 | 1016.2 |
| 20260902040526 | 25 | 160 | 4.8 | 8.0 | 0.00 | 0.00 | 0.00 | 84 | 1016.2 |
| 20260902040026 | 25 | 157 | 6.4 | 8.0 | 0.00 | 0.00 | 0.00 | 84 | 1016.2 |
| 20260902035520 | 25 | 152 | 6.4 | 6.4 | 0.00 | 0.00 | 0.00 | 84 | 1016.1 |
| 20260902035015 | 25 | 158 | 6.4 | 8.0 | 0.00 | 0.00 | 0.00 | 83 | 1016.1 |
| 20260902034509 | 25 | 155 | 8.0 | 8.0 | 0.00 | 0.00 | 0.00 | 83 | 1015.9 |
| 20260902034008 | 25 | 167 | 6.4 | 6.4 | 0.00 | 0.00 | 0.00 | 83 | 1016.0 |
| 20260902033507 | 25 | 161 | 6.4 | 6.4 | 0.00 | 0.00 | 0.00 | 83 | 1016.1 |
| 20260902033002 | 25 | 165 | 4.8 | 6.4 | 0.00 | 0.00 | 0.00 | 83 | 1016.0 |
| 20260902032456 | 26 | 151 | 6.4 | 6.4 | 0.00 | 0.00 | 0.00 | 82 | 1016.1 |
| 20260902031951 | 26 | 162 | 6.4 | 8.0 | 0.00 | 0.00 | 0.00 | 82 | 1016.0 |
| 20260902031446 | 26 | 161 | 6.4 | 8.0 | 0.00 | 0.00 | 0.00 | 81 | 1016.0 |
| 20260902030943 | 26 | 157 | 6.4 | 8.0 | 0.00 | 0.00 | 0.00 | 81 | 1016.2 |
| 20260902030442 | 26 | 158 | 6.4 | 8.0 | 0.00 | 0.00 | 0.00 | 81 | 1016.1 |
| 20260902025940 | 26 | 156 | 6.4 | 8.0 | 0.00 | 0.00 | 0.00 | 81 | 1016.1 |
| 20260902025436 | 26 | 155 | 8.0 | 8.0 | 0.00 | 0.00 | 0.00 | 80 | 1016.1 |
| 20260902024931 | 26 | 155 | 6.4 | 6.4 | 0.00 | 0.00 | 0.00 | 80 | 1016.2 |
| 20260902024427 | 26 | 158 | 6.4 | 8.0 | 0.00 | 0.00 | 0.00 | 80 | 1016.1 |
| 20260902023922 | 26 | 155 | 6.4 | 6.4 | 0.00 | 0.00 | 0.00 | 81 | 1016.1 |
| 20260902023418 | 26 | 149 | 6.4 | 6.4 | 0.00 | 0.00 | 0.00 | 81 | 1016.4 |
| 20260902022916 | 26 | 153 | 6.4 | 6.4 | 0.00 | 0.00 | 0.00 | 80 | 1016.4 |
| 20260902022411 | 26 | 156 | 6.4 | 6.4 | 0.00 | 0.00 | 0.00 | 79 | 1016.0 |
| 20260902021907 | 26 | 154 | 6.4 | 6.4 | 0.00 | 0.00 | 0.00 | 79 | 1016.2 |
| 20260902021402 | 26 | 152 | 4.8 | 6.4 | 0.00 | 0.00 | 0.00 | 80 | 1016.0 |
| 20260902020858 | 26 | 149 | 4.8 | 6.4 | 0.00 | 0.00 | 0.00 | 80 | 1016.2 |
| 20260902020354 | 26 | 157 | 4.8 | 6.4 | 0.00 | 0.00 | 0.00 | 79 | 1016.2 |
| 20260902015849 | 27 | 149 | 4.8 | 6.4 | 0.00 | 0.00 | 0.00 | 78 | 1016.0 |
| 20260902015344 | 27 | 146 | 6.4 | 6.4 | 0.00 | 0.00 | 0.00 | 77 | 1016.0 |
| 20260902014840 | 27 | 152 | 4.8 | 6.4 | 0.00 | 0.00 | 0.00 | 76 | 1016.0 |
| 20260902014337 | 27 | 164 | 4.8 | 6.4 | 0.00 | 0.00 | 0.00 | 75 | 1016.0 |
| 20260902013835 | 27 | 151 | 6.4 | 6.4 | 0.00 | 0.00 | 0.00 | 74 | 1016.0 |
| 20260902013331 | 28 | 153 | 6.4 | 6.4 | 0.00 | 0.00 | 0.00 | 73 | 1015.8 |
| 20260902012826 | 28 | 163 | 6.4 | 6.4 | 0.00 | 0.00 | 0.00 | 72 | 1016.0 |
| 20260902012322 | 28 | 167 | 6.4 | 6.4 | 0.00 | 0.00 | 0.00 | 72 | 1015.7 |
| 20260902011818 | 28 | 166 | 6.4 | 6.4 | 0.00 | 0.00 | 0.00 | 72 | 1015.8 |
| 20260902011312 | 28 | 151 | 6.4 | 6.4 | 0.00 | 0.00 | 0.00 | 72 | 1015.9 |
| 20260902010811 | 28 | 154 | 4.8 | 6.4 | 0.00 | 0.00 | 0.00 | 71 | 1015.5 |
| 20260902010307 | 28 | 154 | 4.8 | 6.4 | 0.00 | 0.00 | 0.00 | 71 | 1015.7 |
| 20260902005805 | 28 | 155 | 4.8 | 6.4 | 0.00 | 0.00 | 0.00 | 71 | 1015.9 |
| 20260902005300 | 28 | 153 | 4.8 | 6.4 | 0.00 | 0.00 | 0.00 | 71 | 1015.6 |
| 20260902004754 | 28 | 153 | 4.8 | 6.4 | 0.00 | 0.00 | 0.00 | 72 | 1015.5 |
| 20260902004250 | 28 | 143 | 6.4 | 6.4 | 0.00 | 0.00 | 0.00 | 71 | 1015.5 |
| 20260902003739 | 28 | 154 | 4.8 | 6.4 | 0.00 | 0.00 | 0.00 | 71 | 1015.5 |
| 20260902003235 | 28 | 152 | 4.8 | 6.4 | 0.00 | 0.00 | 0.00 | 71 | 1015.8 |
| 20260902002730 | 28 | 150 | 4.8 | 6.4 | 0.00 | 0.00 | 0.00 | 71 | 1015.6 |
| 20260902002230 | 28 | 148 | 6.4 | 6.4 | 0.00 | 0.00 | 0.00 | 72 | 1015.6 |
| 20260902001726 | 28 | 139 | 4.8 | 6.4 | 0.00 | 0.00 | 0.00 | 72 | 1015.8 |
| 20260902001226 | 28 | 145 | 4.8 | 6.4 | 0.00 | 0.00 | 0.00 | 72 | 1015.6 |
| 20260902000720 | 28 | 152 | 4.8 | 4.8 | 0.00 | 0.00 | 0.00 | 72 | 1015.7 |
| 20260902000215 | 29 | 158 | 4.8 | 6.4 | 0.00 | 0.00 | 0.00 | 71 | 1015.9 |
| 20260901235714 | 29 | 152 | 4.8 | 4.8 | 0.00 | 0.00 | 0.00 | 71 | 1015.6 |
| 20260901235209 | 29 | 149 | 4.8 | 6.4 | 0.00 | 0.00 | 0.00 | 70 | 1015.6 |
| 20260901234703 | 30 | 150 | 4.8 | 4.8 | 0.00 | 0.00 | 0.00 | 70 | 1015.7 |
| 20260901234158 | 30 | 154 | 4.8 | 6.4 | 0.00 | 0.00 | 0.00 | 69 | 1015.6 |
| 20260901233653 | 30 | 154 | 4.8 | 6.4 | 0.00 | 0.00 | 0.00 | 68 | 1016.0 |
| 20260901233149 | 30 | 163 | 4.8 | 4.8 | 0.00 | 0.00 | 0.00 | 66 | 1015.7 |
| 20260901232643 | 30 | 171 | 4.8 | 6.4 | 0.00 | 0.00 | 0.00 | 65 | 1015.7 |
| 20260901232133 | 31 | 174 | 4.8 | 6.4 | 0.00 | 0.00 | 0.00 | 63 | 1015.9 |